Time;durP1;ratioP1;P1;durP2;ratioP2;P2;SDS_P1;SDS_P2;PMS_P1;PMS_P2;Temp;Humidity;BMP_temperature;BMP_pressure;BME280_temperature;BME280_humidity;BME280_pressure;Samples;Min_cycle;Max_cycle;Signal;HPM_P1;HPM_P2
2023/10/03 00:00:28;;;;;;;6.80;4.40;;;;;;;15.65;80.92;100900.28;109405;275;38396;-70
2023/10/03 00:03:26;;;;;;;6.50;4.50;;;;;;;15.61;81.05;100895.69;109429;275;39746;-70
2023/10/03 00:06:05;;;;;;;7.20;4.50;;;;;;;15.60;81.20;100896.42;109468;275;38164;-72
2023/10/03 00:08:45;;;;;;;5.30;4.30;;;;;;;15.60;81.35;100896.23;109434;275;38231;-71
2023/10/03 00:11:23;;;;;;;6.10;4.20;;;;;;;15.58;81.30;100895.30;109148;275;38603;-71
2023/10/03 00:13:57;;;;;;;9.20;4.30;;;;;;;15.57;81.75;100891.70;109394;275;38161;-71
2023/10/03 00:16:35;;;;;;;6.10;4.20;;;;;;;15.56;81.69;100892.77;109478;275;39594;-72
2023/10/03 00:19:15;;;;;;;5.80;3.90;;;;;;;15.55;81.64;100887.39;109447;275;39791;-73
2023/10/03 00:21:48;;;;;;;8.20;4.20;;;;;;;15.56;81.63;100884.18;109453;275;38695;-69
2023/10/03 00:24:25;;;;;;;7.90;4.70;;;;;;;15.58;82.11;100879.84;109344;275;39615;-70
2023/10/03 00:26:59;;;;;;;6.60;4.50;;;;;;;15.57;82.05;100878.84;109387;275;38469;-71
2023/10/03 00:29:34;;;;;;;7.80;4.00;;;;;;;15.55;81.96;100881.93;109409;275;39005;-71
2023/10/03 00:32:08;;;;;;;6.70;4.10;;;;;;;15.54;81.81;100882.15;109375;275;38472;-70
2023/10/03 00:34:45;;;;;;;5.40;3.70;;;;;;;15.55;81.88;100882.83;109393;275;38721;-72
2023/10/03 00:37:19;;;;;;;8.10;4.60;;;;;;;15.53;81.81;100883.77;109410;275;38370;-72
2023/10/03 00:40:00;;;;;;;7.30;4.40;;;;;;;15.53;81.70;100880.61;108986;276;38153;-71
2023/10/03 00:42:36;;;;;;;8.20;4.60;;;;;;;15.52;81.74;100882.45;109075;275;38269;-72
2023/10/03 00:45:19;;;;;;;6.90;4.40;;;;;;;15.49;81.61;100878.55;109302;275;40099;-71
2023/10/03 00:47:54;;;;;;;6.20;4.00;;;;;;;15.45;81.81;100882.41;109349;275;39388;-70
2023/10/03 00:50:29;;;;;;;6.90;4.40;;;;;;;15.46;81.88;100878.13;109288;275;175139;-70
2023/10/03 00:53:13;;;;;;;8.20;4.70;;;;;;;15.48;81.95;100879.66;109513;275;38568;-71
2023/10/03 00:55:47;;;;;;;6.10;4.60;;;;;;;15.47;81.94;100875.09;109456;275;38210;-71
2023/10/03 00:58:28;;;;;;;7.50;5.00;;;;;;;15.44;81.88;100873.15;109419;275;38626;-71
2023/10/03 01:01:03;;;;;;;7.30;4.60;;;;;;;15.43;82.05;100870.56;109482;275;38643;-71
2023/10/03 01:03:38;;;;;;;8.40;4.80;;;;;;;15.40;82.12;100866.30;109401;275;39919;-70
2023/10/03 01:06:13;;;;;;;7.80;4.20;;;;;;;15.41;82.32;100864.16;109385;275;38831;-71
2023/10/03 01:08:51;;;;;;;6.80;4.30;;;;;;;15.42;82.23;100861.64;109381;275;38692;-70
2023/10/03 01:11:28;;;;;;;7.70;4.70;;;;;;;15.42;82.31;100855.33;109392;275;38614;-71
2023/10/03 01:14:05;;;;;;;7.30;4.80;;;;;;;15.41;82.40;100856.77;109400;275;39617;-71
2023/10/03 01:16:41;;;;;;;8.70;4.60;;;;;;;15.40;82.61;100855.26;109417;275;39342;-72
2023/10/03 01:19:20;;;;;;;7.20;4.80;;;;;;;15.39;82.61;100852.15;109363;275;38262;-71
2023/10/03 01:21:57;;;;;;;8.10;4.40;;;;;;;15.37;82.66;100849.97;109401;275;39354;-70
2023/10/03 01:24:37;;;;;;;6.10;4.60;;;;;;;15.36;82.74;100845.25;109306;275;38778;-71
2023/10/03 01:27:13;;;;;;;6.10;4.70;;;;;;;15.34;82.57;100841.45;108987;275;172454;-72
2023/10/03 01:29:48;;;;;;;7.50;4.80;;;;;;;15.30;82.64;100842.95;109353;275;38157;-70
2023/10/03 01:32:22;;;;;;;9.30;4.50;;;;;;;15.27;83.05;100842.73;109133;275;38782;-70
2023/10/03 01:35:03;;;;;;;8.90;4.90;;;;;;;15.26;83.16;100844.89;109344;275;38577;-70
2023/10/03 01:37:38;;;;;;;9.60;4.90;;;;;;;15.24;83.28;100847.95;109422;275;39906;-70
2023/10/03 01:40:19;;;;;;;7.40;4.90;;;;;;;15.24;83.36;100850.23;109417;275;38378;-70
2023/10/03 01:42:53;;;;;;;7.60;4.60;;;;;;;15.26;83.61;100848.76;109475;275;38654;-70
2023/10/03 01:45:34;;;;;;;7.00;4.60;;;;;;;15.26;83.40;100846.80;109432;275;38264;-71
2023/10/03 01:48:13;;;;;;;6.50;4.30;;;;;;;15.27;83.43;100848.70;109103;275;38514;-70
2023/10/03 01:50:50;;;;;;;8.10;5.00;;;;;;;15.27;83.37;100848.20;109377;275;38331;-70
2023/10/03 01:53:29;;;;;;;7.20;4.90;;;;;;;15.27;83.65;100853.45;109381;275;38154;-70
2023/10/03 01:56:06;;;;;;;8.40;5.00;;;;;;;15.27;83.51;100850.30;109388;275;39382;-71
2023/10/03 01:58:43;;;;;;;7.20;5.10;;;;;;;15.25;83.71;100853.01;109350;275;38165;-72
2023/10/03 02:01:19;;;;;;;7.20;4.80;;;;;;;15.24;83.80;100850.23;109400;275;38629;-71
2023/10/03 02:03:56;;;;;;;8.30;4.40;;;;;;;15.22;83.75;100846.62;109358;275;39126;-70
2023/10/03 02:06:39;;;;;;;6.80;5.00;;;;;;;15.23;83.82;100845.88;109413;275;39644;-72
2023/10/03 02:09:29;;;;;;;9.10;5.10;;;;;;;15.22;84.00;100844.89;109347;275;38496;-71
2023/10/03 02:12:06;;;;;;;9.20;5.20;;;;;;;15.20;84.05;100841.45;109411;275;38248;-73
2023/10/03 02:14:40;;;;;;;7.50;5.40;;;;;;;15.20;83.87;100840.98;109432;275;38488;-71
2023/10/03 02:17:14;;;;;;;8.00;5.30;;;;;;;15.20;84.03;100837.09;109427;275;38489;-71
2023/10/03 02:19:49;;;;;;;8.10;5.00;;;;;;;15.20;84.09;100831.27;109141;276;40486;-71
2023/10/03 02:22:27;;;;;;;6.70;5.10;;;;;;;15.21;84.24;100829.30;109105;276;38183;-70
2023/10/03 02:25:18;;;;;;;9.90;5.50;;;;;;;15.22;84.18;100827.13;109328;275;39356;-70
2023/10/03 02:27:55;;;;;;;7.80;5.60;;;;;;;15.21;84.11;100819.27;109426;275;38235;-71
2023/10/03 02:30:34;;;;;;;8.90;5.50;;;;;;;15.19;84.08;100817.80;109404;275;38443;-72
2023/10/03 02:33:13;;;;;;;8.40;5.50;;;;;;;15.18;84.28;100812.39;109397;275;39396;-72
2023/10/03 02:35:51;;;;;;;7.30;5.60;;;;;;;15.17;84.32;100811.04;109445;275;39480;-70
2023/10/03 02:38:26;;;;;;;9.40;5.90;;;;;;;15.16;84.31;100804.41;109396;275;40377;-70
2023/10/03 02:41:02;;;;;;;9.50;5.70;;;;;;;15.15;84.33;100800.42;109472;275;38909;-70
2023/10/03 02:43:42;;;;;;;10.80;5.50;;;;;;;15.15;84.34;100799.91;109121;275;39566;-70
2023/10/03 02:46:17;;;;;;;8.30;5.40;;;;;;;15.14;84.32;100797.14;109387;275;38318;-71
2023/10/03 02:48:53;;;;;;;9.30;5.70;;;;;;;15.13;84.33;100796.16;109149;275;39344;-71
2023/10/03 02:51:28;;;;;;;8.20;5.70;;;;;;;15.14;84.45;100792.06;109383;275;39314;-71
2023/10/03 02:54:05;;;;;;;8.40;5.50;;;;;;;15.14;84.40;100785.38;109425;275;38532;-70
2023/10/03 02:56:42;;;;;;;10.00;6.30;;;;;;;15.15;84.57;100784.27;108906;275;628268;-71
2023/10/03 02:59:24;;;;;;;8.50;6.00;;;;;;;15.16;84.76;100782.29;109219;275;39054;-71
2023/10/03 03:02:05;;;;;;;10.30;6.40;;;;;;;15.15;84.47;100781.30;109424;276;38613;-72
2023/10/03 03:04:41;;;;;;;10.50;5.50;;;;;;;15.13;84.56;100775.95;109374;275;39234;-71
2023/10/03 03:07:19;;;;;;;8.80;5.70;;;;;;;15.13;84.59;100769.10;109419;275;38221;-70
2023/10/03 03:10:00;;;;;;;8.80;5.60;;;;;;;15.13;84.57;100762.22;109410;275;39480;-70
2023/10/03 03:12:37;;;;;;;10.10;6.00;;;;;;;15.13;84.49;100756.77;109339;275;38850;-71
2023/10/03 03:15:22;;;;;;;9.40;6.20;;;;;;;15.12;84.57;100756.82;109345;275;38738;-72
2023/10/03 03:18:04;;;;;;;7.90;5.60;;;;;;;15.10;84.44;100749.89;109331;275;39522;-71
2023/10/03 03:20:43;;;;;;;10.20;5.40;;;;;;;15.09;84.53;100746.29;109354;275;39708;-70
2023/10/03 03:23:19;;;;;;;8.30;5.90;;;;;;;15.07;84.48;100746.73;109160;275;39090;-70
2023/10/03 03:26:02;;;;;;;8.40;5.90;;;;;;;15.09;84.87;100745.58;109385;275;38932;-71
2023/10/03 03:28:42;;;;;;;8.80;6.10;;;;;;;15.08;84.69;100743.86;109290;275;38182;-71
2023/10/03 03:31:22;;;;;;;9.30;5.80;;;;;;;15.05;84.68;100739.98;109289;275;38134;-70
2023/10/03 03:34:02;;;;;;;11.60;6.90;;;;;;;15.03;84.70;100738.86;109321;275;38178;-72
2023/10/03 03:36:40;;;;;;;8.20;5.60;;;;;;;15.01;84.69;100731.55;109354;275;38391;-71
2023/10/03 03:39:20;;;;;;;10.50;5.70;;;;;;;14.99;84.82;100726.39;109347;275;38317;-71
2023/10/03 03:41:55;;;;;;;9.30;6.00;;;;;;;15.00;85.00;100721.61;109325;275;38436;-72
2023/10/03 03:44:33;;;;;;;9.10;5.90;;;;;;;15.00;85.04;100719.86;109338;269;38708;-72
2023/10/03 03:47:08;;;;;;;8.90;6.40;;;;;;;14.97;85.01;100720.35;109318;275;38230;-71
2023/10/03 03:49:43;;;;;;;9.70;6.10;;;;;;;14.97;84.98;100715.09;109315;275;38235;-70
2023/10/03 03:52:18;;;;;;;7.10;5.30;;;;;;;14.96;84.79;100711.64;109389;275;38413;-71
2023/10/03 03:55:03;;;;;;;10.40;6.00;;;;;;;14.95;84.93;100712.55;109383;275;38820;-71
2023/10/03 03:57:41;;;;;;;9.90;6.10;;;;;;;14.92;84.84;100704.77;109473;275;38770;-71
2023/10/03 04:00:22;;;;;;;7.90;6.10;;;;;;;14.89;85.04;100707.20;109398;275;39142;-72
2023/10/03 04:02:59;;;;;;;8.70;6.30;;;;;;;14.87;85.08;100705.02;109082;275;39070;-70
2023/10/03 04:05:34;;;;;;;9.50;6.30;;;;;;;14.87;85.12;100708.39;109191;276;38583;-71
2023/10/03 04:08:11;;;;;;;10.70;6.30;;;;;;;14.85;85.02;100703.55;109392;275;38439;-71
2023/10/03 04:10:50;;;;;;;9.50;6.50;;;;;;;14.84;85.14;100704.67;109313;275;38742;-71
2023/10/03 04:13:26;;;;;;;10.80;6.40;;;;;;;14.81;85.09;100704.30;109331;275;38177;-69
2023/10/03 04:16:10;;;;;;;8.70;6.40;;;;;;;14.78;85.45;100700.91;109255;275;39736;-71
2023/10/03 04:18:51;;;;;;;9.30;6.60;;;;;;;14.75;85.49;100704.79;109260;275;39471;-70
2023/10/03 04:21:28;;;;;;;9.60;7.10;;;;;;;14.74;85.48;100704.14;109300;275;38207;-72
2023/10/03 04:24:10;;;;;;;10.10;6.70;;;;;;;14.70;85.67;100705.73;109292;275;38220;-71
2023/10/03 04:26:44;;;;;;;12.40;6.60;;;;;;;14.67;85.62;100702.16;109351;275;38317;-70
2023/10/03 04:29:19;;;;;;;9.90;6.20;;;;;;;14.65;85.63;100700.16;109304;275;38164;-70
2023/10/03 04:31:53;;;;;;;9.10;6.50;;;;;;;14.63;85.47;100697.13;109388;275;38138;-70
2023/10/03 04:34:30;;;;;;;9.60;6.80;;;;;;;14.61;85.75;100693.36;109382;275;38751;-71
2023/10/03 04:37:08;;;;;;;11.30;7.30;;;;;;;14.60;86.01;100690.60;109497;275;40011;-71
2023/10/03 04:39:42;;;;;;;11.10;7.70;;;;;;;14.58;86.06;100690.33;109393;275;39432;-72
2023/10/03 04:42:17;;;;;;;9.80;6.80;;;;;;;14.56;85.98;100687.45;109029;276;39615;-71
2023/10/03 04:44:52;;;;;;;10.70;7.10;;;;;;;14.54;86.13;100679.30;109235;275;38822;-72
2023/10/03 04:47:28;;;;;;;10.50;7.00;;;;;;;14.53;86.32;100674.95;109304;275;38407;-72
2023/10/03 04:50:04;;;;;;;9.20;7.00;;;;;;;14.55;86.47;100676.80;109279;275;38485;-72
2023/10/03 04:52:42;;;;;;;12.30;6.90;;;;;;;14.55;86.37;100676.26;109348;275;38458;-70
2023/10/03 04:55:33;;;;;;;9.40;7.40;;;;;;;14.53;86.40;100675.50;109262;275;39314;-70
2023/10/03 04:58:11;;;;;;;9.40;7.20;;;;;;;14.54;86.52;100672.27;109266;275;38186;-70
2023/10/03 05:00:45;;;;;;;10.00;6.60;;;;;;;14.55;86.52;100672.21;109247;275;175143;-71
2023/10/03 05:03:25;;;;;;;9.40;6.40;;;;;;;14.55;86.46;100666.98;109349;275;38647;-70
2023/10/03 05:06:01;;;;;;;9.10;6.70;;;;;;;14.56;86.45;100656.91;109448;275;38129;-72
2023/10/03 05:08:38;;;;;;;9.30;7.30;;;;;;;14.57;86.54;100653.02;109333;275;39154;-72
2023/10/03 05:11:13;;;;;;;9.90;7.50;;;;;;;14.57;86.49;100649.29;109056;275;39627;-70
2023/10/03 05:13:48;;;;;;;10.30;7.40;;;;;;;14.58;86.74;100640.29;109330;275;38236;-70
2023/10/03 05:16:25;;;;;;;12.10;6.90;;;;;;;14.60;86.73;100638.82;109336;275;38843;-71
2023/10/03 05:18:59;;;;;;;10.20;7.00;;;;;;;14.61;86.91;100642.74;109310;275;38542;-71
2023/10/03 05:21:37;;;;;;;9.30;6.60;;;;;;;14.65;86.84;100646.63;109371;275;38480;-70
2023/10/03 05:24:16;;;;;;;9.50;6.90;;;;;;;14.69;87.00;100646.96;109368;275;38169;-70
2023/10/03 05:26:59;;;;;;;8.60;6.60;;;;;;;14.73;86.97;100647.98;109131;275;39484;-71
2023/10/03 05:29:36;;;;;;;12.70;6.70;;;;;;;14.79;87.11;100644.36;109366;275;38449;-71
2023/10/03 05:32:17;;;;;;;10.80;6.50;;;;;;;14.87;87.04;100642.70;109379;275;38248;-71
2023/10/03 05:34:58;;;;;;;9.10;7.20;;;;;;;14.95;86.77;100643.83;109065;275;38732;-72
2023/10/03 05:37:37;;;;;;;10.70;6.80;;;;;;;15.05;86.87;100644.21;109172;276;38272;-71
2023/10/03 05:40:19;;;;;;;8.80;6.60;;;;;;;15.14;86.82;100635.16;109348;275;38277;-71
2023/10/03 05:42:57;;;;;;;9.40;7.00;;;;;;;15.23;86.78;100637.83;109161;275;38511;-71
2023/10/03 05:45:34;;;;;;;9.20;6.50;;;;;;;15.32;86.46;100639.61;109377;275;38565;-71
2023/10/03 05:48:10;;;;;;;12.00;7.10;;;;;;;15.42;86.74;100637.14;109390;275;39278;-70
2023/10/03 05:50:44;;;;;;;11.00;7.80;;;;;;;15.62;87.61;100633.79;109411;275;39345;-71
2023/10/03 05:53:19;;;;;;;10.70;7.10;;;;;;;15.79;87.51;100628.86;109388;275;38444;-71
2023/10/03 05:55:57;;;;;;;10.00;6.80;;;;;;;15.90;86.61;100627.52;109421;275;38370;-71
2023/10/03 05:58:34;;;;;;;11.10;6.80;;;;;;;15.98;85.85;100627.02;109418;275;39358;-71
2023/10/03 06:01:12;;;;;;;10.60;6.80;;;;;;;16.04;85.25;100631.82;109433;275;38462;-71
2023/10/03 06:03:51;;;;;;;11.10;7.00;;;;;;;16.09;84.78;100633.11;109458;275;38349;-71
2023/10/03 06:06:29;;;;;;;8.20;6.80;;;;;;;16.12;84.06;100636.48;109496;275;38219;-71
2023/10/03 06:09:06;;;;;;;10.80;6.60;;;;;;;16.15;83.99;100632.80;109411;275;38229;-72
2023/10/03 06:11:45;;;;;;;11.80;6.90;;;;;;;16.17;83.38;100630.92;109438;275;39355;-72
2023/10/03 06:14:22;;;;;;;10.20;6.40;;;;;;;16.27;83.67;100628.94;109122;275;38165;-71
2023/10/03 06:17:01;;;;;;;12.70;6.70;;;;;;;16.36;83.34;100619.60;109405;275;38706;-71
2023/10/03 06:19:37;;;;;;;;;;;;;;;16.45;83.21;100622.80;109371;275;38588;-71
2023/10/03 06:22:20;;;;;;;10.80;7.20;;;;;;;16.49;82.91;100619.69;109368;275;38472;-70
2023/10/03 06:24:57;;;;;;;8.40;6.20;;;;;;;16.57;82.35;100615.05;109287;275;39312;-71
2023/10/03 06:27:37;;;;;;;12.00;6.40;;;;;;;16.63;81.96;100617.11;109149;275;175046;-71
2023/10/03 06:30:15;;;;;;;10.30;6.70;;;;;;;16.68;81.56;100607.98;109339;275;38449;-72
2023/10/03 06:33:05;;;;;;;11.30;7.00;;;;;;;16.74;81.40;100608.76;109338;275;38816;-71
2023/10/03 06:35:42;;;;;;;10.30;6.10;;;;;;;16.85;81.40;100604.76;109335;275;39982;-71
2023/10/03 06:38:23;;;;;;;10.90;5.70;;;;;;;16.95;81.34;100602.58;109358;275;39886;-73
2023/10/03 06:41:03;;;;;;;11.30;6.10;;;;;;;17.10;81.22;100604.86;109378;275;38565;-72
2023/10/03 06:43:38;;;;;;;11.20;6.40;;;;;;;17.18;80.47;100602.91;109473;275;38578;-72
2023/10/03 06:46:17;;;;;;;12.60;6.40;;;;;;;17.25;80.31;100599.65;109310;275;172323;-72
2023/10/03 06:48:54;;;;;;;9.60;6.60;;;;;;;17.32;79.88;100603.63;109468;275;38320;-72
2023/10/03 06:51:28;;;;;;;11.50;6.60;;;;;;;17.36;79.57;100603.02;109270;276;38148;-71
2023/10/03 06:54:05;;;;;;;8.70;5.70;;;;;;;17.41;79.11;100604.81;109154;276;38205;-71
2023/10/03 06:56:41;;;;;;;9.20;6.30;;;;;;;17.47;78.74;100606.19;109398;275;38202;-72
2023/10/03 06:59:15;;;;;;;10.30;6.10;;;;;;;17.55;78.32;100607.09;109153;276;39130;-73
2023/10/03 07:01:55;;;;;;;9.30;6.20;;;;;;;17.62;78.06;100602.12;109388;275;39400;-72
2023/10/03 07:04:33;;;;;;;10.50;6.20;;;;;;;17.71;78.17;100598.02;109396;275;39451;-71
2023/10/03 07:07:08;;;;;;;9.00;6.20;;;;;;;17.79;77.87;100594.66;109356;275;39432;-71
2023/10/03 07:09:43;;;;;;;9.30;5.60;;;;;;;17.88;77.57;100595.36;109340;275;38459;-73
2023/10/03 07:12:23;;;;;;;9.00;5.50;;;;;;;17.94;77.24;100591.25;109418;275;39066;-72
2023/10/03 07:15:02;;;;;;;10.40;6.00;;;;;;;18.01;77.01;100589.53;109323;275;38575;-73
2023/10/03 07:17:45;;;;;;;9.80;6.10;;;;;;;18.11;77.15;100599.11;109309;275;38963;-71
2023/10/03 07:20:26;;;;;;;7.80;6.00;;;;;;;18.22;76.78;100598.38;109310;275;39588;-72
2023/10/03 07:23:02;;;;;;;8.40;5.70;;;;;;;18.30;76.16;100595.92;109294;275;38173;-70
2023/10/03 07:25:43;;;;;;;8.50;5.90;;;;;;;18.37;76.06;100594.56;109210;275;38081;-71
2023/10/03 07:28:17;;;;;;;9.80;5.60;;;;;;;18.45;75.99;100594.74;109274;275;38282;-73
2023/10/03 07:30:52;;;;;;;13.20;6.00;;;;;;;18.55;75.92;100591.41;109241;275;39370;-73
2023/10/03 07:33:40;;;;;;;9.80;6.00;;;;;;;18.69;75.44;100589.09;109339;275;39051;-72
2023/10/03 07:36:18;;;;;;;9.20;5.80;;;;;;;18.84;74.99;100583.98;109266;275;39409;-72
2023/10/03 07:38:58;;;;;;;9.20;6.00;;;;;;;19.00;74.35;100578.64;109392;275;38140;-74
2023/10/03 07:41:38;;;;;;;9.20;5.60;;;;;;;19.16;74.31;100575.41;109386;275;38661;-73
2023/10/03 07:44:15;;;;;;;9.10;5.70;;;;;;;19.32;74.10;100574.45;109396;275;38157;-72
2023/10/03 07:46:50;;;;;;;10.30;5.40;;;;;;;19.56;73.92;100575.89;109358;275;38162;-72
2023/10/03 07:49:27;;;;;;;10.80;6.40;;;;;;;19.91;74.36;100576.73;109346;275;38481;-72
2023/10/03 07:52:04;;;;;;;8.40;5.70;;;;;;;20.42;73.59;100571.84;109358;275;38199;-72
2023/10/03 07:54:44;;;;;;;9.00;5.00;;;;;;;21.05;72.74;100567.51;109348;275;38204;-73
2023/10/03 07:57:19;;;;;;;8.90;5.30;;;;;;;21.82;70.97;100562.53;109282;275;38869;-74
2023/10/03 07:59:55;;;;;;;11.50;5.70;;;;;;;22.61;68.53;100558.50;109343;275;38306;-73
2023/10/03 08:02:33;;;;;;;8.20;5.20;;;;;;;23.29;65.62;100556.52;108682;275;890943;-71
2023/10/03 08:05:27;;;;;;;7.80;5.10;;;;;;;23.86;62.46;100557.67;109352;275;38137;-74
2023/10/03 08:08:09;;;;;;;9.60;5.20;;;;;;;24.26;59.67;100557.20;109480;275;38253;-73
2023/10/03 08:10:53;;;;;;;11.90;5.30;;;;;;;24.47;58.51;100553.48;109074;275;40300;-73
2023/10/03 08:13:31;;;;;;;8.40;4.90;;;;;;;24.56;57.82;100553.48;109426;275;38140;-74
2023/10/03 08:16:08;;;;;;;9.60;5.30;;;;;;;24.59;57.09;100551.96;109156;275;41188;-73
2023/10/03 08:18:47;;;;;;;;;;;;;;;24.58;56.83;100550.85;109388;275;38719;-74
2023/10/03 08:21:22;;;;;;;9.10;5.10;;;;;;;24.50;56.63;100546.30;109313;275;38460;-73
2023/10/03 08:24:09;;;;;;;10.30;5.60;;;;;;;24.46;55.93;100544.45;109295;275;38375;-74
2023/10/03 08:26:50;;;;;;;6.70;4.80;;;;;;;24.32;55.85;100543.98;109351;275;38167;-74
2023/10/03 08:29:28;;;;;;;6.90;4.90;;;;;;;24.18;55.87;100536.73;109321;275;38189;-74
2023/10/03 08:32:09;;;;;;;10.80;5.70;;;;;;;24.02;55.49;100535.02;108698;275;887339;-73
2023/10/03 08:34:45;;;;;;;8.30;5.70;;;;;;;23.86;55.54;100533.75;109367;275;38809;-73
2023/10/03 08:37:22;;;;;;;9.80;5.40;;;;;;;23.76;55.61;100532.95;109457;275;38151;-73
2023/10/03 08:40:19;;;;;;;8.60;5.70;;;;;;;23.67;55.65;100526.73;109197;275;38641;-73
2023/10/03 08:42:55;;;;;;;7.90;5.10;;;;;;;23.60;56.33;100523.16;109094;275;38182;-76
2023/10/03 08:45:30;;;;;;;8.20;5.50;;;;;;;23.55;55.90;100514.87;109105;275;38169;-73
2023/10/03 08:48:07;;;;;;;10.50;5.30;;;;;;;23.50;56.19;100513.18;109107;275;38213;-73
2023/10/03 08:50:47;;;;;;;10.20;5.40;;;;;;;23.46;55.54;100508.53;109308;275;39594;-74
2023/10/03 08:53:27;;;;;;;9.30;5.30;;;;;;;23.41;55.86;100502.50;109145;275;38812;-74
2023/10/03 08:56:06;;;;;;;9.50;5.70;;;;;;;23.40;56.25;100495.36;109325;275;38214;-72
2023/10/03 08:58:48;;;;;;;6.70;5.20;;;;;;;23.39;56.39;100491.48;109290;275;38351;-72
2023/10/03 09:01:33;;;;;;;8.40;5.80;;;;;;;23.38;56.17;100486.27;109297;275;39329;-72
2023/10/03 09:04:15;;;;;;;8.20;5.30;;;;;;;23.39;55.53;100486.92;109342;275;38162;-72
2023/10/03 09:06:51;;;;;;;10.80;5.50;;;;;;;23.41;55.80;100488.67;109415;275;38429;-73
2023/10/03 09:09:25;;;;;;;9.10;5.50;;;;;;;23.46;55.61;100480.63;109468;275;38163;-72
2023/10/03 09:12:03;;;;;;;8.00;5.50;;;;;;;23.54;55.58;100476.49;109444;275;38461;-73
2023/10/03 09:14:38;;;;;;;10.00;5.70;;;;;;;23.66;55.10;100471.98;109419;275;39715;-76
2023/10/03 09:17:24;;;;;;;7.20;5.50;;;;;;;23.85;55.22;100470.69;109381;275;40337;-72
2023/10/03 09:20:04;;;;;;;9.10;5.60;;;;;;;24.14;55.25;100465.98;109376;275;38582;-72
2023/10/03 09:22:41;;;;;;;9.90;5.50;;;;;;;24.58;54.21;100462.72;109387;275;38137;-75
2023/10/03 09:25:21;;;;;;;8.50;5.30;;;;;;;24.99;53.03;100457.30;109170;276;39061;-75
2023/10/03 09:27:59;;;;;;;13.10;5.70;;;;;;;25.44;52.52;100449.88;109383;275;38856;-75
2023/10/03 09:30:38;;;;;;;8.90;5.20;;;;;;;25.95;51.60;100447.85;109122;275;38291;-74
2023/10/03 09:33:16;;;;;;;12.20;5.60;;;;;;;26.46;49.26;100444.02;109386;275;39267;-75
2023/10/03 09:36:02;;;;;;;11.90;5.20;;;;;;;26.98;48.15;100437.75;109164;275;38470;-75
2023/10/03 09:38:53;;;;;;;8.60;5.30;;;;;;;27.56;47.98;100439.02;109373;275;39809;-75
2023/10/03 09:41:31;;;;;;;8.20;5.50;;;;;;;28.15;47.14;100435.03;109407;275;39343;-75
2023/10/03 09:44:10;;;;;;;8.50;5.50;;;;;;;28.57;45.47;100429.77;109392;275;38130;-73
2023/10/03 09:46:45;;;;;;;9.90;5.80;;;;;;;28.75;44.77;100426.36;109201;275;38265;-74
2023/10/03 09:49:26;;;;;;;8.70;5.40;;;;;;;28.77;43.93;100426.39;109159;275;38223;-74
2023/10/03 09:52:04;;;;;;;9.40;5.60;;;;;;;28.70;44.05;100426.93;109407;275;38229;-71
2023/10/03 09:54:45;;;;;;;9.90;5.50;;;;;;;28.53;44.11;100429.55;109344;275;38317;-71
2023/10/03 09:57:21;;;;;;;8.40;5.10;;;;;;;28.25;43.78;100424.08;109379;275;39994;-73
2023/10/03 09:59:58;;;;;;;9.20;5.80;;;;;;;27.92;43.87;100422.52;109387;275;38361;-72
2023/10/03 10:02:46;;;;;;;9.60;5.40;;;;;;;27.60;44.10;100422.29;109163;275;38433;-72
2023/10/03 10:05:25;;;;;;;9.70;5.10;;;;;;;27.26;44.58;100421.60;109386;275;38689;-71
2023/10/03 10:08:06;;;;;;;10.00;5.20;;;;;;;26.96;44.91;100421.23;109408;275;38147;-72
2023/10/03 10:10:42;;;;;;;10.00;5.40;;;;;;;26.65;45.35;100412.55;109402;275;38588;-72
2023/10/03 10:13:22;;;;;;;12.70;6.30;;;;;;;26.42;46.20;100405.86;109446;275;38447;-72
2023/10/03 10:16:20;;;;;;;10.60;6.00;;;;;;;26.24;46.70;100404.60;109410;275;40447;-70
2023/10/03 10:19:08;;;;;;;9.40;5.60;;;;;;;26.04;46.38;100397.42;109377;275;38304;-69
2023/10/03 10:21:48;;;;;;;9.80;5.50;;;;;;;25.85;46.50;100389.40;109374;275;39409;-69
2023/10/03 10:24:28;;;;;;;10.60;5.60;;;;;;;25.66;46.80;100383.18;108657;275;890157;-68
2023/10/03 10:27:09;;;;;;;10.30;5.50;;;;;;;25.56;47.37;100378.73;109301;276;38450;-71
2023/10/03 10:29:58;;;;;;;11.20;6.50;;;;;;;25.46;47.68;100375.92;108621;275;887743;-73
2023/10/03 10:32:34;;;;;;;9.50;5.70;;;;;;;25.40;47.81;100372.11;109318;275;38195;-74
2023/10/03 10:35:36;;;;;;;9.10;6.10;;;;;;;25.36;47.94;100372.15;109261;275;38163;-72
2023/10/03 10:38:12;;;;;;;13.90;6.40;;;;;;;25.29;47.50;100366.98;109325;275;38667;-70
2023/10/03 10:41:29;;;;;;;11.20;6.30;;;;;;;25.21;47.68;100362.80;109326;275;38379;-71
2023/10/03 10:44:16;;;;;;;9.40;5.90;;;;;;;25.13;48.49;100359.98;109027;275;38428;-71
2023/10/03 10:46:52;;;;;;;8.90;5.80;;;;;;;25.09;48.60;100355.69;109434;275;39286;-71
2023/10/03 10:50:04;;;;;;;9.90;6.00;;;;;;;25.04;48.37;100357.95;109145;275;38323;-71
2023/10/03 10:52:54;;;;;;;9.90;5.70;;;;;;;24.95;47.56;100354.19;109395;275;38502;-69
2023/10/03 10:55:33;;;;;;;8.80;6.00;;;;;;;24.88;48.24;100349.45;109143;275;38759;-72
2023/10/03 10:58:13;;;;;;;10.60;6.10;;;;;;;24.83;48.49;100340.40;108405;276;769107;-74
2023/10/03 11:00:56;;;;;;;8.90;6.00;;;;;;;24.83;48.92;100333.50;109307;275;39359;-73
2023/10/03 11:03:33;;;;;;;10.90;5.90;;;;;;;24.83;48.91;100324.94;109304;275;38142;-73
2023/10/03 11:06:18;;;;;;;8.90;6.20;;;;;;;24.82;48.79;100320.88;109209;276;40595;-74
2023/10/03 11:08:55;;;;;;;12.60;6.20;;;;;;;24.81;48.82;100315.95;109345;275;39637;-73
2023/10/03 11:11:41;;;;;;;;;;;;;;;24.82;48.85;100314.86;109400;275;39659;-74
2023/10/03 11:14:15;;;;;;;9.20;5.60;;;;;;;24.78;48.91;100307.79;109460;275;38470;-75
2023/10/03 11:16:49;;;;;;;11.00;6.50;;;;;;;24.76;49.17;100305.25;109428;276;39464;-74
2023/10/03 11:19:24;;;;;;;8.30;5.90;;;;;;;24.74;48.78;100303.70;109367;271;38290;-73
2023/10/03 11:21:58;;;;;;;14.80;6.10;;;;;;;24.73;48.96;100299.89;109401;275;38267;-73
2023/10/03 11:24:34;;;;;;;11.00;6.10;;;;;;;24.72;49.07;100294.75;109148;275;39293;-74
2023/10/03 11:27:26;;;;;;;11.10;5.90;;;;;;;24.70;49.27;100294.20;109362;275;38148;-74
2023/10/03 11:30:02;;;;;;;10.90;6.20;;;;;;;24.67;49.32;100285.94;109405;275;39703;-73
2023/10/03 11:32:40;;;;;;;10.60;6.00;;;;;;;24.68;49.24;100284.45;109332;275;39819;-72
2023/10/03 11:35:24;;;;;;;8.90;5.50;;;;;;;24.70;49.37;100282.75;109299;273;39172;-73
2023/10/03 11:38:05;;;;;;;8.80;5.30;;;;;;;24.74;49.13;100275.38;109209;275;171968;-73
2023/10/03 11:40:49;;;;;;;8.70;6.40;;;;;;;24.77;48.69;100273.45;109350;275;39456;-72
2023/10/03 11:43:31;;;;;;;12.80;5.70;;;;;;;24.79;49.18;100274.23;109259;275;38370;-72
2023/10/03 11:46:10;;;;;;;9.60;5.40;;;;;;;24.84;49.13;100266.23;109220;275;38767;-74
2023/10/03 11:48:47;;;;;;;8.00;5.00;;;;;;;24.88;48.98;100259.82;109276;275;38287;-73
2023/10/03 11:51:25;;;;;;;9.10;5.70;;;;;;;24.90;48.72;100249.77;109358;275;39678;-73
2023/10/03 11:54:08;;;;;;;9.30;5.60;;;;;;;24.93;48.34;100241.99;109321;275;38337;-72
2023/10/03 11:56:47;;;;;;;8.80;6.00;;;;;;;24.95;48.16;100230.16;109337;275;39264;-73
2023/10/03 11:59:22;;;;;;;9.10;5.40;;;;;;;24.98;47.91;100223.36;109277;275;39396;-74
2023/10/03 12:01:59;;;;;;;11.30;6.20;;;;;;;25.00;47.71;100212.61;109378;275;38211;-74
2023/10/03 12:04:37;;;;;;;7.70;5.40;;;;;;;25.02;47.74;100210.42;109112;276;38230;-74
2023/10/03 12:07:15;;;;;;;9.20;5.30;;;;;;;25.01;47.45;100209.64;109114;276;38468;-74
2023/10/03 12:09:53;;;;;;;9.70;5.10;;;;;;;24.99;47.55;100208.38;109341;275;38969;-73
2023/10/03 12:12:32;;;;;;;8.40;5.10;;;;;;;24.97;47.57;100210.15;109322;275;38405;-74
2023/10/03 12:15:20;;;;;;;8.60;5.10;;;;;;;24.99;47.72;100210.92;109087;276;38156;-72
2023/10/03 12:17:55;;;;;;;7.50;4.70;;;;;;;25.00;47.52;100208.09;109445;275;38391;-74